| time (UTC) | temp F | wind direction | speed knots | gust knots | rain 1hr in | rain 24hr in | rain mn in | humidity % | barometer mb |
| 20260503041323 | 53 | 193 | 0.0 | 0.0 | 0.00 | 0.02 | 0.02 | 77 | 1017.0 |
| 20260503040321 | 53 | 193 | 0.0 | 0.0 | 0.00 | 0.02 | 0.02 | 75 | 1016.8 |
| 20260503035319 | 54 | 193 | 0.0 | 0.0 | 0.00 | 0.02 | 0.02 | 74 | 1017.0 |
| 20260503034314 | 53 | 193 | 0.0 | 0.0 | 0.00 | 0.02 | 0.02 | 74 | 1017.0 |
| 20260503033352 | 54 | 193 | 0.0 | 0.0 | 0.00 | 0.02 | 0.02 | 74 | 1017.0 |
| 20260503032324 | 54 | 193 | 0.0 | 0.9 | 0.00 | 0.02 | 0.02 | 74 | 1016.9 |
| 20260503031316 | 54 | 64 | 0.0 | 0.0 | 0.00 | 0.02 | 0.02 | 73 | 1016.7 |
| 20260503030354 | 55 | 64 | 0.0 | 0.9 | 0.01 | 0.02 | 0.02 | 72 | 1016.5 |
| 20260503025327 | 55 | 228 | 0.0 | 0.0 | 0.01 | 0.02 | 0.02 | 71 | 1016.0 |
| 20260503024323 | 55 | 227 | 0.0 | 0.9 | 0.01 | 0.02 | 0.02 | 69 | 1016.0 |
| 20260503023314 | 55 | 245 | 0.0 | 0.9 | 0.01 | 0.02 | 0.02 | 68 | 1015.9 |
| 20260503022313 | 56 | 240 | 0.0 | 2.6 | 0.01 | 0.02 | 0.02 | 68 | 1015.9 |
| 20260503021329 | 56 | 259 | 0.0 | 0.9 | 0.01 | 0.02 | 0.02 | 69 | 1016.0 |
| 20260503020321 | 56 | 238 | 0.0 | 0.9 | 0.00 | 0.01 | 0.01 | 66 | 1016.0 |
| 20260503015315 | 56 | 253 | 0.0 | 0.0 | 0.00 | 0.01 | 0.01 | 70 | 1015.9 |
| 20260503014330 | 56 | 255 | 0.0 | 1.7 | 0.00 | 0.01 | 0.01 | 67 | 1015.8 |
| 20260503013351 | 57 | 262 | 0.0 | 0.9 | 0.01 | 0.01 | 0.01 | 67 | 1015.8 |
| 20260503012325 | 56 | 311 | 0.0 | 0.9 | 0.01 | 0.01 | 0.01 | 75 | 1016.0 |
| 20260503011321 | 56 | 48 | 0.0 | 0.0 | 0.01 | 0.01 | 0.01 | 78 | 1016.3 |
| 20260503010338 | 56 | 49 | 0.0 | 0.0 | 0.01 | 0.01 | 0.01 | 75 | 1016.2 |
| 20260503005314 | 58 | 48 | 0.0 | 1.7 | 0.01 | 0.01 | 0.01 | 66 | 1016.3 |
| 20260503004328 | 62 | 134 | 0.9 | 5.2 | 0.01 | 0.01 | 0.01 | 50 | 1016.1 |
| 20260503003327 | 63 | 122 | 0.0 | 3.5 | 0.00 | 0.00 | 0.00 | 42 | 1015.8 |
| 20260503002322 | 63 | 233 | 0.0 | 0.9 | 0.00 | 0.00 | 0.00 | 45 | 1015.0 |
| 20260503001322 | 64 | 124 | 0.0 | 0.9 | 0.00 | 0.00 | 0.00 | 45 | 1014.6 |
| 20260503000354 | 65 | 248 | 0.0 | 0.9 | 0.00 | 0.00 | 0.00 | 47 | 1014.7 |
| 20260502235335 | 66 | 330 | 0.0 | 0.9 | 0.00 | 0.00 | 0.00 | 37 | 1014.7 |
| 20260502234322 | 66 | 70 | 0.0 | 2.6 | 0.00 | 0.00 | 0.00 | 36 | 1014.4 |
| 20260502233320 | 67 | 271 | 0.0 | 0.9 | 0.00 | 0.00 | 0.00 | 36 | 1014.2 |
| 20260502232317 | 67 | 333 | 0.0 | 3.5 | 0.00 | 0.00 | 0.00 | 34 | 1014.2 |
| 20260502231328 | 68 | 308 | 0.9 | 2.6 | 0.00 | 0.00 | 0.00 | 33 | 1014.4 |
| 20260502230327 | 69 | 309 | 0.0 | 3.5 | 0.00 | 0.00 | 0.00 | 32 | 1014.4 |
| 20260502225343 | 70 | 293 | 0.0 | 2.6 | 0.00 | 0.00 | 0.00 | 30 | 1014.4 |
| 20260502224316 | 70 | 23 | 0.0 | 1.7 | 0.00 | 0.00 | 0.00 | 30 | 1014.5 |
| 20260502223311 | 70 | 230 | 0.9 | 3.5 | 0.00 | 0.00 | 0.00 | 26 | 1014.8 |
| 20260502222326 | 70 | 233 | 0.9 | 7.8 | 0.00 | 0.00 | 0.00 | 25 | 1014.7 |
| 20260502221317 | 70 | 210 | 0.9 | 2.6 | 0.00 | 0.00 | 0.00 | 28 | 1014.7 |
| 20260502220333 | 69 | 181 | 0.0 | 0.9 | 0.00 | 0.00 | 0.00 | 30 | 1014.9 |
| 20260502215331 | 68 | 64 | 0.0 | 2.6 | 0.00 | 0.00 | 0.00 | 29 | 1015.1 |
| 20260502214319 | 69 | 39 | 0.0 | 6.1 | 0.00 | 0.00 | 0.00 | 28 | 1015.2 |
| 20260502213316 | 70 | 117 | 3.5 | 8.7 | 0.00 | 0.00 | 0.00 | 27 | 1015.4 |
| 20260502212313 | 70 | 28 | 0.9 | 3.5 | 0.00 | 0.00 | 0.00 | 30 | 1015.5 |
| 20260502211327 | 70 | 146 | 0.0 | 2.6 | 0.00 | 0.00 | 0.00 | 29 | 1015.7 |
| 20260502210317 | 70 | 146 | 0.0 | 2.6 | 0.00 | 0.00 | 0.00 | 29 | 1015.6 |
| 20260502205338 | 69 | 181 | 0.0 | 1.7 | 0.00 | 0.00 | 0.00 | 29 | 1015.6 |
| 20260502204333 | 69 | 162 | 0.0 | 2.6 | 0.00 | 0.00 | 0.00 | 29 | 1015.7 |
| 20260502203324 | 69 | 169 | 0.0 | 2.6 | 0.00 | 0.00 | 0.00 | 29 | 1015.8 |
| 20260502202339 | 69 | 156 | 0.0 | 4.3 | 0.00 | 0.00 | 0.00 | 28 | 1015.9 |
| 20260502201313 | 70 | 224 | 0.0 | 1.7 | 0.00 | 0.00 | 0.00 | 29 | 1015.9 |
| 20260502200329 | 70 | 97 | 0.0 | 4.3 | 0.00 | 0.00 | 0.00 | 28 | 1015.9 |
| 20260502195322 | 70 | 226 | 0.9 | 4.3 | 0.00 | 0.00 | 0.00 | 28 | 1016.0 |
| 20260502194317 | 71 | 133 | 0.0 | 3.5 | 0.00 | 0.00 | 0.00 | 27 | 1016.0 |
| 20260502193313 | 71 | 140 | 0.9 | 3.5 | 0.00 | 0.00 | 0.00 | 27 | 1016.0 |
| 20260502192315 | 71 | 65 | 0.9 | 2.6 | 0.00 | 0.00 | 0.00 | 27 | 1016.0 |
| 20260502191330 | 71 | 155 | 0.9 | 5.2 | 0.00 | 0.00 | 0.00 | 28 | 1016.1 |
| 20260502190322 | 71 | 352 | 0.9 | 5.2 | 0.00 | 0.00 | 0.00 | 27 | 1016.2 |
| 20260502185319 | 71 | 40 | 0.9 | 8.7 | 0.00 | 0.00 | 0.00 | 28 | 1016.2 |
| 20260502184330 | 71 | 72 | 1.7 | 6.1 | 0.00 | 0.00 | 0.00 | 28 | 1016.3 |
| 20260502183328 | 69 | 60 | 1.7 | 7.8 | 0.00 | 0.00 | 0.00 | 28 | 1016.4 |
| 20260502182325 | 69 | 51 | 1.7 | 4.3 | 0.00 | 0.00 | 0.00 | 29 | 1016.6 |
| 20260502181336 | 68 | 59 | 0.9 | 2.6 | 0.00 | 0.00 | 0.00 | 30 | 1016.8 |
| 20260502180355 | 67 | 70 | 0.9 | 1.7 | 0.00 | 0.00 | 0.00 | 35 | 1016.8 |
| 20260502170311 | 65 | 8 | 0.0 | 0.9 | 0.00 | 0.00 | 0.00 | 36 | 1017.1 |
| 20260502164329 | 63 | 48 | 0.9 | 2.6 | 0.00 | 0.00 | 0.00 | 36 | 1017.1 |
| 20260502163349 | 63 | 18 | 0.0 | 0.0 | 0.00 | 0.00 | 0.00 | 37 | 1017.1 |
| 20260502162314 | 63 | 134 | 0.0 | 0.9 | 0.00 | 0.00 | 0.00 | 36 | 1017.1 |
| 20260502161316 | 61 | 146 | 0.0 | 0.0 | 0.00 | 0.00 | 0.00 | 39 | 1017.2 |
| 20260502160313 | 60 | 44 | 0.0 | 0.9 | 0.00 | 0.00 | 0.00 | 38 | 1017.3 |
| 20260502152314 | 55 | 306 | 0.0 | 0.0 | 0.00 | 0.00 | 0.00 | 54 | 1017.3 |
| 20260502151336 | 54 | 306 | 0.0 | 0.9 | 0.00 | 0.00 | 0.00 | 55 | 1017.3 |
| 20260502150324 | 52 | 212 | 0.0 | 0.0 | 0.00 | 0.00 | 0.00 | 60 | 1017.3 |